Time;durP1;ratioP1;P1;durP2;ratioP2;P2;SDS_P1;SDS_P2;PMS_P1;PMS_P2;Temp;Humidity;BMP_temperature;BMP_pressure;BME280_temperature;BME280_humidity;BME280_pressure;Samples;Min_cycle;Max_cycle;Signal;HPM_P1;HPM_P2
2022/10/14 00:01:06;;;;;;;31.20;13.00;;;15.30;99.90;;;;;;5050267;28;20028;-74
2022/10/14 00:03:32;;;;;;;20.77;13.02;;;15.20;99.90;;;;;;5066712;28;20037;-74
2022/10/14 00:05:58;;;;;;;22.27;12.57;;;15.20;99.90;;;;;;5051193;28;20374;-74
2022/10/14 00:08:25;;;;;;;26.30;13.10;;;15.20;99.90;;;;;;5050924;28;20029;-73
2022/10/14 00:10:50;;;;;;;24.00;12.95;;;15.10;99.90;;;;;;5050709;28;20045;-74
2022/10/14 00:13:16;;;;;;;29.20;13.88;;;15.20;99.90;;;;;;5050935;28;20056;-73
2022/10/14 00:15:42;;;;;;;26.08;13.38;;;15.20;99.90;;;;;;5050892;28;20029;-74
2022/10/14 00:18:08;;;;;;;21.95;13.15;;;15.20;99.90;;;;;;5050993;28;20052;-73
2022/10/14 00:20:34;;;;;;;25.95;14.38;;;15.10;99.90;;;;;;5066547;28;20024;-74
2022/10/14 00:23:00;;;;;;;23.48;12.43;;;15.10;99.90;;;;;;5050153;28;20021;-73
2022/10/14 00:25:27;;;;;;;24.05;13.02;;;15.10;99.90;;;;;;5050917;28;20040;-74
2022/10/14 00:27:53;;;;;;;23.58;13.18;;;15.10;99.90;;;;;;5050773;28;20360;-75
2022/10/14 00:30:19;;;;;;;22.88;13.10;;;15.10;99.90;;;;;;5050794;28;20036;-73
2022/10/14 00:32:44;;;;;;;22.90;13.45;;;15.10;99.90;;;;;;5066288;28;20033;-76
2022/10/14 00:35:10;;;;;;;25.25;13.35;;;15.10;99.90;;;;;;5051208;28;20036;-74
2022/10/14 00:37:36;;;;;;;29.95;13.15;;;15.20;99.90;;;;;;5050486;28;20041;-74
2022/10/14 00:40:03;;;;;;;21.73;12.77;;;15.20;99.90;;;;;;5050266;28;20072;-74
2022/10/14 00:42:32;;;;;;;26.30;13.73;;;15.20;99.90;;;;;;5050300;28;20367;-74
2022/10/14 00:45:05;;;;;;;37.92;14.20;;;15.20;99.90;;;;;;5050591;28;20098;-73
2022/10/14 00:47:31;;;;;;;25.10;13.80;;;15.10;99.90;;;;;;5050595;28;20017;-74
2022/10/14 00:49:58;;;;;;;99.13;55.10;;;15.20;99.90;;;;;;5051060;28;20037;-73
2022/10/14 00:52:24;;;;;;;183.68;108.25;;;15.20;99.90;;;;;;5050861;28;20104;-72
2022/10/14 00:54:59;;;;;;;82.00;43.22;;;15.20;99.90;;;;;;5050423;28;20029;-72
2022/10/14 00:57:26;;;;;;;76.97;42.15;;;15.10;99.90;;;;;;5067363;28;20043;-74
2022/10/14 00:59:55;;;;;;;30.40;16.13;;;15.10;99.90;;;;;;5050109;28;20033;-72
2022/10/14 01:02:20;;;;;;;29.65;15.45;;;15.10;99.90;;;;;;5050469;28;20036;-74
2022/10/14 01:04:46;;;;;;;28.02;14.68;;;15.10;99.90;;;;;;5050019;28;20038;-74
2022/10/14 01:07:27;;;;;;;26.20;14.80;;;15.20;99.90;;;;;;5049052;28;20449;-74
2022/10/14 01:10:05;;;;;;;27.52;15.35;;;15.10;99.90;;;;;;5050318;28;20103;-74
2022/10/14 01:12:52;;;;;;;31.15;15.10;;;15.20;99.90;;;;;;5049893;28;20041;-73
2022/10/14 01:15:53;;;;;;;32.05;14.23;;;15.20;99.90;;;;;;5050054;28;20124;-74
2022/10/14 01:18:54;;;;;;;26.95;15.45;;;15.10;99.90;;;;;;4988436;28;20062;-75
2022/10/14 01:21:35;;;;;;;27.65;15.25;;;15.10;99.90;;;;;;4933879;29;20047;-73
2022/10/14 01:24:04;;;;;;;28.55;15.15;;;15.10;99.90;;;;;;5041345;28;20112;-74
2022/10/14 01:26:49;;;;;;;30.30;15.00;;;15.10;99.90;;;;;;5053922;28;20040;-74
2022/10/14 01:29:56;;;;;;;28.65;14.05;;;15.10;99.90;;;;;;5054464;28;20027;-73
2022/10/14 01:32:55;;;;;;;29.38;15.32;;;15.10;99.90;;;;;;5053977;28;20085;-73
2022/10/14 01:35:30;;;;;;;27.30;16.00;;;15.10;99.90;;;;;;5034682;28;20587;-75
2022/10/14 01:37:59;;;;;;;25.60;14.52;;;15.20;99.90;;;;;;5073913;28;20033;-75
2022/10/14 01:40:38;;;;;;;25.25;14.45;;;15.10;99.90;;;;;;5089797;28;20035;-74
2022/10/14 01:43:05;;;;;;;31.70;15.35;;;15.10;99.90;;;;;;5073918;28;20029;-75
2022/10/14 01:45:35;;;;;;;25.15;14.10;;;15.20;99.90;;;;;;5072816;28;20029;-74
2022/10/14 01:48:03;;;;;;;29.88;15.15;;;15.10;99.90;;;;;;5072451;28;20416;-75
2022/10/14 01:50:30;;;;;;;23.88;14.07;;;15.10;99.90;;;;;;5072638;28;20024;-74
2022/10/14 01:53:07;;;;;;;29.27;14.82;;;15.10;99.90;;;;;;5072818;28;20021;-74
2022/10/14 01:55:38;;;;;;;28.10;15.18;;;15.10;99.90;;;;;;5073376;28;20032;-74
2022/10/14 01:58:07;;;;;;;27.50;15.32;;;15.10;99.90;;;;;;5072412;28;20024;-74
2022/10/14 02:00:32;;;;;;;28.02;15.30;;;15.10;99.90;;;;;;5073516;28;20048;-73
2022/10/14 02:02:58;;;;;;;25.52;14.95;;;15.10;99.90;;;;;;5073694;28;20020;-74
2022/10/14 02:05:52;;;;;;;24.15;15.02;;;15.10;99.90;;;;;;5073466;28;20020;-74
2022/10/14 02:08:21;;;;;;;31.10;14.73;;;15.10;99.90;;;;;;5073733;28;20031;-75
2022/10/14 02:11:09;;;;;;;23.65;14.15;;;15.20;99.90;;;;;;5073428;28;20028;-74
2022/10/14 02:13:40;;;;;;;;;;;15.20;99.90;;;;;;5073801;28;20043;-75
2022/10/14 02:16:21;;;;;;;24.98;13.65;;;15.20;99.90;;;;;;5073113;28;20262;-74
2022/10/14 02:19:22;;;;;;;27.08;15.27;;;15.20;99.90;;;;;;5072028;28;20075;-75
2022/10/14 02:22:10;;;;;;;29.58;14.77;;;15.20;99.90;;;;;;5050862;28;20431;-74
2022/10/14 02:24:43;;;;;;;30.98;15.98;;;15.20;99.90;;;;;;5072147;28;20040;-74
2022/10/14 02:27:13;;;;;;;28.73;15.30;;;15.20;99.90;;;;;;5072968;28;20025;-74
2022/10/14 02:29:43;;;;;;;27.60;15.00;;;15.20;99.90;;;;;;5073149;28;20074;-75
2022/10/14 02:32:12;;;;;;;28.40;14.55;;;15.20;99.90;;;;;;5073430;28;20012;-74
2022/10/14 02:34:40;;;;;;;25.60;15.43;;;15.20;99.90;;;;;;5071336;28;20202;-74
2022/10/14 02:37:06;;;;;;;27.63;15.03;;;15.20;99.90;;;;;;5072839;28;20036;-74
2022/10/14 02:39:37;;;;;;;28.98;14.60;;;15.20;99.90;;;;;;5072955;28;20086;-75
2022/10/14 02:42:05;;;;;;;21.42;13.57;;;15.20;99.90;;;;;;5072976;28;20059;-73
2022/10/14 02:44:30;;;;;;;25.80;14.87;;;15.20;99.90;;;;;;5071620;28;20401;-73
2022/10/14 02:46:56;;;;;;;25.13;13.10;;;15.20;99.90;;;;;;5072078;28;20028;-75
2022/10/14 02:49:22;;;;;;;26.27;15.13;;;15.20;99.90;;;;;;5072702;28;20147;-73
2022/10/14 02:51:48;;;;;;;26.77;14.45;;;15.20;99.90;;;;;;5072758;28;20086;-74
2022/10/14 02:54:14;;;;;;;22.80;13.45;;;15.20;99.90;;;;;;5072744;28;20040;-75
2022/10/14 02:56:39;;;;;;;28.50;14.65;;;15.20;99.90;;;;;;5072468;28;20160;-73
2022/10/14 02:59:05;;;;;;;26.42;14.00;;;15.20;99.90;;;;;;5072857;28;20021;-75
2022/10/14 03:01:32;;;;;;;21.88;13.13;;;15.20;99.90;;;;;;5072591;28;20051;-72
2022/10/14 03:03:57;;;;;;;23.17;13.77;;;15.10;99.90;;;;;;5072516;28;20041;-74
2022/10/14 03:06:23;;;;;;;24.50;14.77;;;15.10;99.90;;;;;;5072348;28;20489;-74
2022/10/14 03:08:49;;;;;;;27.58;13.70;;;15.10;99.90;;;;;;5071274;28;20112;-74
2022/10/14 03:11:15;;;;;;;28.98;14.95;;;15.10;99.90;;;;;;5072592;28;20051;-74
2022/10/14 03:13:40;;;;;;;26.23;14.80;;;15.10;99.90;;;;;;5072173;28;20036;-74
2022/10/14 03:16:06;;;;;;;25.08;14.25;;;15.10;99.90;;;;;;5071888;28;20029;-74
2022/10/14 03:18:32;;;;;;;108.93;65.60;;;15.10;99.90;;;;;;5071994;28;20390;-74
2022/10/14 03:20:58;;;;;;;46.78;26.33;;;15.10;99.90;;;;;;5072177;28;20043;-74
2022/10/14 03:23:23;;;;;;;46.30;26.10;;;15.20;99.90;;;;;;5071932;28;20016;-74
2022/10/14 03:25:49;;;;;;;29.23;16.23;;;15.10;99.90;;;;;;5072312;28;20028;-74
2022/10/14 03:28:14;;;;;;;24.58;14.90;;;15.20;99.90;;;;;;5071927;28;20028;-73
2022/10/14 03:30:40;;;;;;;27.80;14.95;;;15.20;99.90;;;;;;5070747;28;20036;-75
2022/10/14 03:33:06;;;;;;;27.23;14.95;;;15.20;99.90;;;;;;5072055;28;20028;-74
2022/10/14 03:35:31;;;;;;;32.05;14.20;;;15.10;99.90;;;;;;5071747;28;20081;-74
2022/10/14 03:38:01;;;;;;;30.55;13.40;;;15.10;99.90;;;;;;5072037;28;20074;-74
2022/10/14 03:40:26;;;;;;;21.52;13.25;;;15.20;99.90;;;;;;5070437;28;20040;-74
2022/10/14 03:42:52;;;;;;;23.90;14.20;;;15.20;99.90;;;;;;5071758;28;20363;-75
2022/10/14 03:45:18;;;;;;;25.63;15.48;;;15.20;99.90;;;;;;5071493;28;20029;-75
2022/10/14 03:47:43;;;;;;;29.10;14.98;;;15.20;99.90;;;;;;5070557;28;20108;-75
2022/10/14 03:50:09;;;;;;;28.20;15.27;;;15.20;99.90;;;;;;5071700;28;20439;-74
2022/10/14 03:52:35;;;;;;;24.45;14.32;;;15.20;99.90;;;;;;5071317;28;20032;-75
2022/10/14 03:55:00;;;;;;;27.50;14.50;;;15.20;99.90;;;;;;5070230;28;20033;-73
2022/10/14 03:57:26;;;;;;;23.20;14.15;;;15.20;99.90;;;;;;5071434;28;20444;-75
2022/10/14 03:59:52;;;;;;;32.05;16.50;;;15.20;99.90;;;;;;5070170;28;20094;-75
2022/10/14 04:02:18;;;;;;;27.67;15.90;;;15.20;99.90;;;;;;5071972;28;20029;-73
2022/10/14 04:04:43;;;;;;;29.10;16.08;;;15.10;99.90;;;;;;5071179;28;20090;-74
2022/10/14 04:07:09;;;;;;;32.80;16.27;;;15.20;99.90;;;;;;5070266;28;20031;-73
2022/10/14 04:09:35;;;;;;;27.25;14.57;;;15.10;99.90;;;;;;5071263;28;20028;-74
2022/10/14 04:12:00;;;;;;;31.05;16.98;;;15.10;99.90;;;;;;5071001;28;20091;-74
2022/10/14 04:14:26;;;;;;;30.88;16.42;;;15.10;99.90;;;;;;5071292;28;20052;-74
2022/10/14 04:16:52;;;;;;;27.55;15.95;;;15.20;99.90;;;;;;5071621;28;20063;-74
2022/10/14 04:19:18;;;;;;;32.30;15.63;;;15.10;99.90;;;;;;5070930;28;20107;-73
2022/10/14 04:21:44;;;;;;;27.73;15.70;;;15.10;99.90;;;;;;5069783;28;20071;-73
2022/10/14 04:24:10;;;;;;;29.63;16.05;;;15.10;99.90;;;;;;5070814;28;20049;-74
2022/10/14 04:26:35;;;;;;;28.13;15.95;;;15.10;99.90;;;;;;5069556;28;20044;-73
2022/10/14 04:29:01;;;;;;;28.25;15.95;;;15.10;99.90;;;;;;5071151;28;20358;-74
2022/10/14 04:31:27;;;;;;;32.53;17.38;;;15.10;99.90;;;;;;5070762;28;20036;-75
2022/10/14 04:33:52;;;;;;;32.17;17.60;;;15.10;99.90;;;;;;5070708;28;20032;-74
2022/10/14 04:36:18;;;;;;;31.40;17.02;;;15.10;99.90;;;;;;5070645;28;20032;-75
2022/10/14 04:38:44;;;;;;;26.40;16.25;;;15.00;99.90;;;;;;5070636;28;20470;-75
2022/10/14 04:41:09;;;;;;;27.80;16.98;;;15.00;99.90;;;;;;5070848;28;20020;-74
2022/10/14 04:43:35;;;;;;;26.88;16.50;;;15.00;99.90;;;;;;5070756;28;20093;-74
2022/10/14 04:46:01;;;;;;;26.42;15.93;;;15.00;99.90;;;;;;5070831;28;20029;-74
2022/10/14 04:48:26;;;;;;;27.67;16.15;;;15.00;99.90;;;;;;5069373;28;20041;-74
2022/10/14 04:50:53;;;;;;;28.77;17.02;;;15.00;99.90;;;;;;5070471;28;20094;-73
2022/10/14 04:53:19;;;;;;;29.65;17.15;;;15.00;99.90;;;;;;5070824;28;20033;-74
2022/10/14 04:55:48;;;;;;;28.95;17.13;;;15.00;99.90;;;;;;5067451;28;20103;-75
2022/10/14 04:58:15;;;;;;;24.42;15.05;;;15.00;99.90;;;;;;5069335;28;20470;-73
2022/10/14 05:00:41;;;;;;;27.58;15.30;;;15.00;99.90;;;;;;5070819;28;20039;-73
2022/10/14 05:03:07;;;;;;;27.40;16.20;;;14.90;99.90;;;;;;5069492;28;20063;-74
2022/10/14 05:05:33;;;;;;;175.98;97.35;;;14.90;99.90;;;;;;5070294;28;20438;-73
2022/10/14 05:07:58;;;;;;;149.35;83.40;;;14.90;99.90;;;;;;5058519;28;20029;-75
2022/10/14 05:10:24;;;;;;;39.90;21.67;;;14.90;99.90;;;;;;5050510;28;20033;-74
2022/10/14 05:12:50;;;;;;;28.27;16.05;;;14.90;99.90;;;;;;5050483;28;20045;-74
2022/10/14 05:15:16;;;;;;;29.25;15.70;;;14.80;99.90;;;;;;5050303;28;20159;-74
2022/10/14 05:17:43;;;;;;;24.92;16.33;;;14.80;99.90;;;;;;5050475;28;20078;-74
2022/10/14 05:20:10;;;;;;;27.63;17.00;;;14.80;99.90;;;;;;5051009;28;20021;-75
2022/10/14 05:22:37;;;;;;;28.27;17.08;;;14.70;99.90;;;;;;5050622;28;20078;-75
2022/10/14 05:25:03;;;;;;;31.60;17.05;;;14.70;99.90;;;;;;5050072;28;20112;-74
2022/10/14 05:27:28;;;;;;;30.75;17.17;;;14.70;99.90;;;;;;5050170;28;20092;-74
2022/10/14 05:29:54;;;;;;;27.45;16.42;;;14.70;99.90;;;;;;5050343;28;20419;-73
2022/10/14 05:32:20;;;;;;;28.10;16.83;;;14.70;99.90;;;;;;5066089;28;20435;-74
2022/10/14 05:34:45;;;;;;;27.52;17.05;;;14.70;99.90;;;;;;5049028;28;20363;-74
2022/10/14 05:37:11;;;;;;;30.05;16.42;;;14.70;99.90;;;;;;5049888;28;20339;-75
2022/10/14 05:39:37;;;;;;;31.42;16.90;;;14.70;99.90;;;;;;5049693;28;20037;-73
2022/10/14 05:42:03;;;;;;;34.22;17.90;;;14.80;99.90;;;;;;5049843;28;20033;-73
2022/10/14 05:44:29;;;;;;;27.23;16.52;;;14.80;99.90;;;;;;5049999;28;20039;-74
2022/10/14 05:46:54;;;;;;;32.72;17.35;;;14.80;99.90;;;;;;5050084;28;20037;-73
2022/10/14 05:49:20;;;;;;;30.05;16.70;;;14.80;99.90;;;;;;5049883;28;20232;-74
2022/10/14 05:51:46;;;;;;;29.92;17.48;;;14.80;99.90;;;;;;5050030;28;20033;-75
2022/10/14 05:54:12;;;;;;;31.02;16.20;;;14.90;99.90;;;;;;5049635;28;20052;-74
2022/10/14 05:56:38;;;;;;;31.83;17.08;;;14.90;99.90;;;;;;5049454;28;20033;-74
2022/10/14 05:59:03;;;;;;;33.83;18.17;;;14.90;99.90;;;;;;5049080;28;20021;-74
2022/10/14 06:01:33;;;;;;;32.00;17.85;;;14.80;99.90;;;;;;5049773;28;20108;-74
2022/10/14 06:03:59;;;;;;;35.05;17.95;;;14.80;99.90;;;;;;5049752;28;20029;-75
2022/10/14 06:06:24;;;;;;;39.35;20.05;;;14.80;99.90;;;;;;5049518;28;20486;-75
2022/10/14 06:08:50;;;;;;;33.80;18.05;;;14.80;99.90;;;;;;5049863;28;20101;-75
2022/10/14 06:11:15;;;;;;;30.75;17.38;;;14.80;99.90;;;;;;5053230;28;20041;-74
2022/10/14 06:13:41;;;;;;;29.17;16.10;;;14.90;99.90;;;;;;5053114;28;20040;-74
2022/10/14 06:16:08;;;;;;;27.13;16.70;;;14.90;99.90;;;;;;5053056;28;20033;-75
2022/10/14 06:18:35;;;;;;;34.72;17.85;;;14.90;99.90;;;;;;5052138;28;20395;-74
2022/10/14 06:21:01;;;;;;;30.38;18.23;;;14.90;99.90;;;;;;5053056;28;20056;-73
2022/10/14 06:23:27;;;;;;;35.63;19.30;;;14.90;99.90;;;;;;5052675;28;20037;-76
2022/10/14 06:25:52;;;;;;;36.33;17.63;;;14.90;99.90;;;;;;5053209;28;20013;-74
2022/10/14 06:28:18;;;;;;;31.42;17.33;;;14.90;99.90;;;;;;5051839;28;20120;-74
2022/10/14 06:30:54;;;;;;;33.03;18.30;;;14.90;99.90;;;;;;5052926;28;20045;-74
2022/10/14 06:33:20;;;;;;;34.42;17.75;;;14.90;99.90;;;;;;5052783;28;20043;-75
2022/10/14 06:35:46;;;;;;;30.40;18.27;;;14.90;99.90;;;;;;5052711;28;20108;-77
2022/10/14 06:38:13;;;;;;;35.28;19.88;;;14.90;99.90;;;;;;5068576;28;20119;-74
2022/10/14 06:40:38;;;;;;;32.08;18.58;;;14.90;99.90;;;;;;5052674;28;20082;-74
2022/10/14 06:43:04;;;;;;;29.95;18.35;;;15.00;99.90;;;;;;5052418;28;20025;-73
2022/10/14 06:45:30;;;;;;;32.13;19.33;;;15.00;99.90;;;;;;5051349;28;20090;-76
2022/10/14 06:47:56;;;;;;;37.83;20.98;;;15.00;99.90;;;;;;5052339;28;20078;-73
2022/10/14 06:50:22;;;;;;;40.42;20.63;;;15.00;99.90;;;;;;5052853;28;20029;-72
2022/10/14 06:52:48;;;;;;;34.95;17.70;;;15.00;99.90;;;;;;5052972;28;20490;-75
2022/10/14 06:55:14;;;;;;;34.90;19.55;;;15.00;99.90;;;;;;5052621;28;20033;-74
2022/10/14 06:57:40;;;;;;;33.80;18.95;;;15.00;99.90;;;;;;5067514;28;20362;-74
2022/10/14 07:00:07;;;;;;;36.70;19.38;;;15.10;99.90;;;;;;5052282;28;20033;-73
2022/10/14 07:02:32;;;;;;;37.25;20.05;;;15.10;99.90;;;;;;5052638;28;20021;-74
2022/10/14 07:04:58;;;;;;;43.60;21.00;;;15.00;99.90;;;;;;5051844;28;20039;-73
2022/10/14 07:07:24;;;;;;;40.33;19.88;;;15.10;99.90;;;;;;5052257;28;20033;-74
2022/10/14 07:09:50;;;;;;;43.17;21.38;;;15.10;99.90;;;;;;5052246;28;20044;-73
2022/10/14 07:12:15;;;;;;;41.13;21.23;;;15.10;99.90;;;;;;5052276;28;20048;-76
2022/10/14 07:14:41;;;;;;;48.05;26.15;;;15.10;99.90;;;;;;5052286;28;20029;-77
2022/10/14 07:17:08;;;;;;;58.40;29.90;;;15.20;99.90;;;;;;5052619;28;20121;-74
2022/10/14 07:19:34;;;;;;;55.42;29.80;;;15.20;99.90;;;;;;5052111;28;20025;-74
2022/10/14 07:22:00;;;;;;;43.30;23.63;;;15.20;99.90;;;;;;5051992;28;20067;-74
2022/10/14 07:24:26;;;;;;;48.35;25.58;;;15.20;99.90;;;;;;5067314;28;20048;-75
2022/10/14 07:26:52;;;;;;;45.75;24.38;;;15.30;99.90;;;;;;5052117;28;20053;-75
2022/10/14 07:29:17;;;;;;;49.53;25.23;;;15.20;99.90;;;;;;5052147;28;20322;-76
2022/10/14 07:31:43;;;;;;;46.78;24.08;;;15.20;99.90;;;;;;5052142;28;20487;-76
2022/10/14 07:34:09;;;;;;;51.55;24.25;;;15.30;99.90;;;;;;5051819;28;20107;-75
2022/10/14 07:36:35;;;;;;;49.25;24.27;;;15.20;99.90;;;;;;5051281;28;20036;-75
2022/10/14 07:39:01;;;;;;;50.15;24.35;;;15.20;99.90;;;;;;5052006;28;20040;-74
2022/10/14 07:41:26;;;;;;;49.55;25.27;;;15.30;99.90;;;;;;5051709;28;20096;-73
2022/10/14 07:43:56;;;;;;;54.42;26.08;;;15.30;99.90;;;;;;5051797;28;20453;-76
2022/10/14 07:46:42;;;;;;;53.33;26.02;;;15.30;99.90;;;;;;5051501;28;20106;-74
2022/10/14 07:49:14;;;;;;;48.80;24.92;;;15.30;99.90;;;;;;5067022;28;20429;-77
2022/10/14 07:51:41;;;;;;;52.60;25.10;;;15.30;99.90;;;;;;5051304;28;20114;-77
2022/10/14 07:54:10;;;;;;;50.90;26.05;;;15.40;99.90;;;;;;5051568;28;20055;-76
2022/10/14 07:56:41;;;;;;;51.15;24.48;;;15.40;99.90;;;;;;5066953;28;20399;-77
2022/10/14 07:59:06;;;;;;;54.90;24.42;;;15.40;99.90;;;;;;5051883;28;20025;-78
2022/10/14 08:01:32;;;;;;;54.67;26.20;;;15.40;99.90;;;;;;5051667;28;20069;-76
2022/10/14 08:03:58;;;;;;;52.20;26.15;;;15.50;99.90;;;;;;5049907;28;20025;-77
2022/10/14 08:06:24;;;;;;;53.83;25.95;;;15.50;99.90;;;;;;5051372;28;20233;-75
2022/10/14 08:08:50;;;;;;;51.78;24.60;;;15.50;99.90;;;;;;5050301;28;20451;-77
2022/10/14 08:11:21;;;;;;;46.97;24.00;;;15.50;99.90;;;;;;5051190;28;20535;-76
2022/10/14 08:13:48;;;;;;;45.47;23.05;;;15.50;99.90;;;;;;5051118;28;20045;-77
2022/10/14 08:16:22;;;;;;;54.58;26.05;;;15.50;99.90;;;;;;5051037;28;20029;-76
2022/10/14 08:18:49;;;;;;;53.67;25.70;;;15.60;99.90;;;;;;5051114;28;20499;-76
2022/10/14 08:21:16;;;;;;;53.38;26.80;;;15.70;99.90;;;;;;5051014;28;20447;-76
2022/10/14 08:23:43;;;;;;;50.42;24.65;;;15.90;99.90;;;;;;5066416;28;20102;-76
2022/10/14 08:26:33;;;;;;;54.05;25.73;;;16.00;99.90;;;;;;5051452;28;20029;-76
2022/10/14 08:29:01;;;;;;;53.17;24.60;;;16.10;99.90;;;;;;5050919;28;20040;-74
2022/10/14 08:31:27;;;;;;;38.55;21.25;;;16.30;99.90;;;;;;5049957;28;20040;-76
2022/10/14 08:33:53;;;;;;;53.08;25.02;;;16.30;99.90;;;;;;5050578;28;20418;-76
2022/10/14 08:36:19;;;;;;;52.78;25.30;;;16.50;99.90;;;;;;5066191;28;20049;-75
2022/10/14 08:38:46;;;;;;;43.80;22.65;;;16.40;99.90;;;;;;5050626;28;20482;-75
2022/10/14 08:41:11;;;;;;;44.30;22.52;;;16.50;99.90;;;;;;5050064;28;20029;-76
2022/10/14 08:43:40;;;;;;;41.83;21.05;;;16.40;99.90;;;;;;5050704;28;20056;-76
2022/10/14 08:46:36;;;;;;;42.20;22.33;;;16.40;99.90;;;;;;5050643;28;20121;-76
2022/10/14 08:49:10;;;;;;;43.90;21.25;;;16.40;99.90;;;;;;5049386;28;20036;-74
2022/10/14 08:51:36;;;;;;;50.85;22.20;;;16.50;99.90;;;;;;5050536;28;20120;-75
2022/10/14 08:54:09;;;;;;;42.17;21.38;;;16.40;99.90;;;;;;5050581;28;20029;-76
2022/10/14 08:56:36;;;;;;;45.38;22.15;;;16.50;99.90;;;;;;5050448;28;20098;-77
2022/10/14 08:59:11;;;;;;;47.53;22.02;;;16.70;99.90;;;;;;5051033;28;20039;-75
2022/10/14 09:01:51;;;;;;;48.67;21.10;;;16.90;99.90;;;;;;5050759;28;20112;-75
2022/10/14 09:04:17;;;;;;;35.05;18.50;;;17.30;99.90;;;;;;5050744;28;20037;-74
2022/10/14 09:06:46;;;;;;;38.90;20.35;;;17.90;99.90;;;;;;5050695;28;20452;-77
2022/10/14 09:09:26;;;;;;;36.22;18.38;;;18.30;99.90;;;;;;5049212;28;20132;-77
2022/10/14 09:11:58;;;;;;;29.77;16.10;;;18.60;99.90;;;;;;5049321;28;20068;-76
2022/10/14 09:14:33;;;;;;;26.15;14.60;;;19.00;99.90;;;;;;5049565;28;20462;-77
2022/10/14 09:17:28;;;;;;;23.33;12.77;;;20.20;99.80;;;;;;5051033;28;20174;-74
2022/10/14 09:20:12;;;;;;;23.25;11.45;;;20.90;98.20;;;;;;5048938;28;20025;-74
2022/10/14 09:22:37;;;;;;;16.83;10.40;;;21.00;97.00;;;;;;5049136;28;20515;-74
2022/10/14 09:25:15;;;;;;;17.48;10.60;;;21.30;97.40;;;;;;5049203;28;20159;-73
2022/10/14 09:27:41;;;;;;;18.67;11.65;;;21.90;96.90;;;;;;5051083;28;20116;-75
2022/10/14 09:30:16;;;;;;;18.33;10.68;;;22.40;97.30;;;;;;5049792;28;20470;-75
2022/10/14 09:32:51;;;;;;;13.63;9.30;;;22.50;95.30;;;;;;5050835;28;20052;-76
2022/10/14 09:35:32;;;;;;;13.15;7.55;;;22.80;95.90;;;;;;5066402;28;20025;-75
2022/10/14 09:37:58;;;;;;;13.82;7.53;;;23.20;95.10;;;;;;5050240;28;20043;-76
2022/10/14 09:40:30;;;;;;;10.48;6.57;;;23.20;94.50;;;;;;5065674;28;20029;-75
2022/10/14 09:43:05;;;;;;;8.90;6.50;;;22.50;93.90;;;;;;5065731;28;20282;-75
2022/10/14 09:46:00;;;;;;;9.45;5.95;;;22.10;93.60;;;;;;5052587;28;20088;-76
2022/10/14 09:48:38;;;;;;;8.73;5.65;;;21.60;93.90;;;;;;5053794;28;20037;-75
2022/10/14 09:51:09;;;;;;;8.95;5.68;;;21.10;94.00;;;;;;5054207;28;20021;-74
2022/10/14 09:53:41;;;;;;;11.80;5.13;;;20.80;94.60;;;;;;5053931;28;20447;-74
2022/10/14 09:56:09;;;;;;;10.07;5.25;;;20.40;94.90;;;;;;5054512;28;20040;-75
2022/10/14 09:58:41;;;;;;;7.32;5.07;;;20.10;95.20;;;;;;5054141;28;20032;-74
2022/10/14 10:01:17;;;;;;;8.60;5.38;;;19.90;95.70;;;;;;5053998;28;20029;-75
2022/10/14 10:03:44;;;;;;;7.35;4.40;;;19.60;95.90;;;;;;5053309;28;20028;-77
2022/10/14 10:06:13;;;;;;;6.38;4.07;;;19.40;96.20;;;;;;5053828;28;20486;-74
2022/10/14 10:08:53;;;;;;;7.30;4.55;;;19.30;96.30;;;;;;5054048;28;20044;-76
2022/10/14 10:11:36;;;;;;;6.57;3.88;;;19.00;96.50;;;;;;5069619;28;20041;-78
2022/10/14 10:14:33;;;;;;;10.52;5.97;;;19.50;97.50;;;;;;5069389;28;20043;-79
2022/10/14 10:17:11;;;;;;;5.93;3.70;;;19.70;96.10;;;;;;5069056;28;20041;-78
2022/10/14 10:19:39;;;;;;;3.92;3.20;;;19.70;95.90;;;;;;5069191;28;20128;-77
2022/10/14 10:22:18;;;;;;;5.97;3.25;;;19.60;96.40;;;;;;5068997;28;20092;-77
2022/10/14 10:24:45;;;;;;;4.55;2.80;;;20.40;96.30;;;;;;5053277;28;20017;-77
2022/10/14 10:27:36;;;;;;;4.10;2.17;;;21.20;95.60;;;;;;5053354;28;20098;-75
2022/10/14 10:30:17;;;;;;;4.85;3.45;;;21.90;94.80;;;;;;5053411;28;20040;-76
2022/10/14 10:32:50;;;;;;;3.90;2.38;;;22.00;94.10;;;;;;5053725;28;20020;-77
2022/10/14 10:35:48;;;;;;;3.33;2.03;;;21.60;93.10;;;;;;5069250;28;20025;-76
2022/10/14 10:38:31;;;;;;;4.85;1.55;;;21.20;93.70;;;;;;5043814;28;20135;-76
2022/10/14 10:41:08;;;;;;;1.95;1.75;;;21.40;94.10;;;;;;5068596;28;20075;-75
2022/10/14 10:43:59;;;;;;;2.67;1.55;;;21.30;93.60;;;;;;5053433;28;20025;-75
2022/10/14 10:46:54;;;;;;;1.88;1.42;;;21.10;93.80;;;;;;5053156;28;20044;-77
2022/10/14 10:49:23;;;;;;;3.40;1.70;;;20.70;94.10;;;;;;5042117;28;20037;-76
2022/10/14 10:52:27;;;;;;;1.60;1.50;;;20.40;93.90;;;;;;5052606;28;20029;-76
2022/10/14 10:55:01;;;;;;;3.85;2.53;;;20.20;94.50;;;;;;5052287;28;20058;-75
2022/10/14 10:57:45;;;;;;;3.63;2.70;;;20.00;94.70;;;;;;5068253;28;20056;-76
2022/10/14 11:00:19;;;;;;;1.98;1.38;;;20.30;95.10;;;;;;5052898;28;20040;-74
2022/10/14 11:02:54;;;;;;;1.67;1.50;;;20.30;94.50;;;;;;5052980;28;20029;-74
2022/10/14 11:05:38;;;;;;;1.92;1.52;;;20.00;94.20;;;;;;5053232;28;20025;-75
2022/10/14 11:14:47;;;;;;;3.72;2.05;;;20.40;94.40;;;;;;5052370;28;20366;-76
2022/10/14 11:17:44;;;;;;;4.43;1.45;;;20.50;94.90;;;;;;5024142;28;20041;-75
2022/10/14 11:20:35;;;;;;;2.25;1.60;;;21.00;94.60;;;;;;5051552;28;20037;-76
2022/10/14 11:23:29;;;;;;;2.22;1.38;;;21.30;94.10;;;;;;5025382;28;20375;-76
2022/10/14 11:26:06;;;;;;;6.38;1.45;;;21.20;94.10;;;;;;5052429;28;20052;-76
2022/10/14 11:28:40;;;;;;;2.43;1.30;;;21.50;93.60;;;;;;5052274;28;20120;-76
2022/10/14 11:31:26;;;;;;;1.95;1.38;;;21.40;92.90;;;;;;5052267;28;20029;-77
2022/10/14 11:34:11;;;;;;;2.40;1.13;;;21.10;92.90;;;;;;5052307;28;20040;-77
2022/10/14 11:36:48;;;;;;;2.03;1.45;;;21.00;93.30;;;;;;5051742;28;20044;-76
2022/10/14 11:39:20;;;;;;;4.07;1.90;;;20.90;93.50;;;;;;5052173;28;20359;-78
2022/10/14 11:41:52;;;;;;;2.10;1.40;;;20.90;94.20;;;;;;5052062;28;20036;-76
2022/10/14 11:45:15;;;;;;;1.52;1.30;;;20.70;93.40;;;;;;5052803;28;20033;-77
2022/10/14 11:47:45;;;;;;;1.67;1.58;;;20.80;93.70;;;;;;4970983;28;20035;-77
2022/10/14 11:50:38;;;;;;;3.60;2.42;;;20.60;93.60;;;;;;4971469;28;20320;-76
2022/10/14 11:53:22;;;;;;;3.05;2.42;;;20.50;93.70;;;;;;5032136;28;20056;-76
2022/10/14 11:56:33;;;;;;;4.30;1.70;;;20.40;94.00;;;;;;5051701;28;20094;-75
2022/10/14 11:59:32;;;;;;;1.00;0.88;;;20.40;93.90;;;;;;4990006;28;20042;-76
2022/10/14 12:02:12;;;;;;;1.20;0.98;;;20.40;93.90;;;;;;5050436;28;20047;-74
2022/10/14 12:04:43;;;;;;;1.27;1.02;;;20.10;94.20;;;;;;5067111;28;20041;-76
2022/10/14 12:07:16;;;;;;;4.57;1.50;;;20.10;94.40;;;;;;5066083;28;20033;-79
2022/10/14 12:09:51;;;;;;;1.20;1.10;;;20.10;94.30;;;;;;5051656;28;20474;-77
2022/10/14 12:12:20;;;;;;;3.15;1.60;;;20.00;94.30;;;;;;5066847;28;20056;-76
2022/10/14 12:15:18;;;;;;;4.40;1.95;;;20.00;94.10;;;;;;5052020;28;20055;-75
2022/10/14 12:17:46;;;;;;;;;;;19.90;94.30;;;;;;5050537;28;20132;-76
2022/10/14 12:20:30;;;;;;;3.35;0.98;;;19.70;94.40;;;;;;5051595;28;19913;-78
2022/10/14 12:22:57;;;;;;;1.48;1.10;;;19.60;94.60;;;;;;5051249;28;20351;-78
2022/10/14 12:25:28;;;;;;;3.08;1.80;;;19.60;94.70;;;;;;5051365;28;20468;-77
2022/10/14 12:27:54;;;;;;;4.75;1.30;;;19.60;94.80;;;;;;5066421;28;20051;-75
2022/10/14 12:30:32;;;;;;;2.85;1.60;;;19.40;94.90;;;;;;5051079;28;20040;-75
2022/10/14 12:33:12;;;;;;;2.60;1.42;;;19.20;95.20;;;;;;5066750;28;20116;-78
2022/10/14 12:35:47;;;;;;;3.88;1.50;;;19.10;95.40;;;;;;5050885;28;20377;-75
2022/10/14 12:38:13;;;;;;;2.78;1.50;;;19.20;95.60;;;;;;5051404;28;20052;-75
2022/10/14 12:40:39;;;;;;;2.78;1.65;;;19.20;95.50;;;;;;5066257;28;20489;-77
2022/10/14 12:43:23;;;;;;;5.70;2.58;;;19.30;95.40;;;;;;5050763;28;20486;-77
2022/10/14 12:45:53;;;;;;;3.08;2.30;;;19.30;95.30;;;;;;5050912;28;20061;-79
2022/10/14 12:48:25;;;;;;;1.45;1.10;;;19.30;95.50;;;;;;5050790;28;20104;-77
2022/10/14 12:51:09;;;;;;;2.20;1.10;;;19.30;95.40;;;;;;5066456;28;20386;-76
2022/10/14 12:53:38;;;;;;;1.88;0.98;;;19.30;95.40;;;;;;5050847;28;20108;-79
2022/10/14 12:56:04;;;;;;;1.40;0.90;;;19.30;95.40;;;;;;5051301;28;20024;-79
2022/10/14 12:58:56;;;;;;;3.65;1.20;;;19.20;95.40;;;;;;5050969;28;20029;-78
2022/10/14 13:01:22;;;;;;;1.00;0.90;;;19.10;95.90;;;;;;5050558;28;20044;-77